Time;durP1;ratioP1;P1;durP2;ratioP2;P2;SDS_P1;SDS_P2;PMS_P1;PMS_P2;Temp;Humidity;BMP_temperature;BMP_pressure;BME280_temperature;BME280_humidity;BME280_pressure;Samples;Min_cycle;Max_cycle;Signal;HPM_P1;HPM_P2
2022/04/12 00:00:17;;;;;;;10.73;2.07;;;22.50;99.90;;;;;;5073982;28;20184;-68
2022/04/12 00:02:44;;;;;;;11.90;2.60;;;22.10;99.90;;;;;;5074590;28;20245;-69
2022/04/12 00:05:12;;;;;;;10.33;2.93;;;21.70;99.90;;;;;;5068123;28;20222;-68
2022/04/12 00:07:42;;;;;;;9.50;1.60;;;21.40;99.90;;;;;;5073301;28;20179;-68
2022/04/12 00:10:11;;;;;;;11.77;2.03;;;21.20;99.90;;;;;;5059992;28;20589;-68
2022/04/12 00:12:39;;;;;;;15.70;2.90;;;21.20;99.90;;;;;;5069357;28;20225;-68
2022/04/12 00:15:09;;;;;;;11.47;2.23;;;21.20;99.90;;;;;;5074656;28;20323;-69
2022/04/12 00:20:26;;;;;;;12.27;2.10;;;21.10;99.90;;;;;;5056433;28;20286;-68
2022/04/12 00:22:58;;;;;;;16.47;2.60;;;20.90;99.90;;;;;;5074034;28;20290;-68
2022/04/12 00:25:27;;;;;;;7.47;2.23;;;21.00;99.90;;;;;;5072861;28;20689;-69
2022/04/12 00:27:57;;;;;;;10.10;2.20;;;21.00;99.90;;;;;;5074617;28;20183;-68
2022/04/12 00:30:27;;;;;;;10.17;2.40;;;21.20;99.90;;;;;;5073344;28;20693;-68
2022/04/12 00:32:55;;;;;;;11.37;2.17;;;21.20;99.90;;;;;;5074555;28;20253;-68
2022/04/12 00:35:25;;;;;;;14.10;2.80;;;21.20;99.90;;;;;;5072481;28;20657;-68
2022/04/12 00:37:53;;;;;;;13.63;2.27;;;21.20;99.90;;;;;;5071510;28;20184;-68
2022/04/12 00:40:24;;;;;;;10.57;2.50;;;21.30;99.90;;;;;;5061561;28;20557;-68
2022/04/12 00:42:53;;;;;;;13.63;1.97;;;21.30;99.90;;;;;;5074347;28;20198;-67
2022/04/12 00:45:21;;;;;;;14.17;2.27;;;21.30;99.90;;;;;;5073083;28;20184;-67
2022/04/12 00:47:49;;;;;;;12.90;2.43;;;21.40;99.90;;;;;;5073959;28;20186;-67
2022/04/12 00:50:17;;;;;;;11.23;2.47;;;21.30;99.90;;;;;;5073904;28;20222;-67
2022/04/12 00:52:50;;;;;;;13.50;2.20;;;21.40;99.90;;;;;;5074166;28;20176;-68
2022/04/12 00:55:18;;;;;;;11.60;2.57;;;21.60;99.90;;;;;;5061960;28;20185;-68
2022/04/12 00:57:47;;;;;;;7.03;1.90;;;21.70;99.90;;;;;;5054695;28;20183;-68
2022/04/12 01:00:18;;;;;;;13.83;2.13;;;21.80;99.90;;;;;;5061874;28;20192;-67
2022/04/12 01:02:46;;;;;;;10.07;2.43;;;21.80;99.90;;;;;;5066924;28;20630;-68
2022/04/12 01:05:14;;;;;;;9.90;2.10;;;22.00;99.90;;;;;;5063903;28;20192;-68
2022/04/12 01:07:44;;;;;;;13.03;1.90;;;22.30;99.90;;;;;;5053825;28;20176;-68
2022/04/12 01:10:12;;;;;;;9.33;2.00;;;22.60;99.90;;;;;;5053813;28;20212;-68
2022/04/12 01:12:40;;;;;;;5.90;1.50;;;22.70;99.90;;;;;;5053736;28;20180;-68
2022/04/12 01:15:28;;;;;;;11.53;2.00;;;22.60;99.90;;;;;;5053556;28;20239;-69
2022/04/12 01:17:57;;;;;;;9.73;2.00;;;23.20;99.90;;;;;;5057916;28;20187;-68
2022/04/12 01:20:29;;;;;;;10.30;2.37;;;24.10;99.90;;;;;;5073821;28;20237;-68
2022/04/12 01:23:18;;;;;;;8.57;1.77;;;23.90;99.90;;;;;;5073557;28;20203;-67
2022/04/12 01:25:45;;;;;;;7.27;1.93;;;23.60;99.90;;;;;;5058268;28;20552;-68
2022/04/12 01:28:14;;;;;;;10.43;2.23;;;23.40;99.90;;;;;;5053598;28;20260;-68
2022/04/12 01:30:42;;;;;;;11.13;2.40;;;23.10;99.90;;;;;;5052150;28;20222;-68
2022/04/12 01:33:10;;;;;;;7.33;1.87;;;23.10;99.90;;;;;;5061717;28;20184;-69
2022/04/12 01:35:38;;;;;;;7.17;1.83;;;23.70;99.90;;;;;;5073570;28;20518;-68
2022/04/12 01:38:06;;;;;;;8.73;2.43;;;24.10;99.90;;;;;;5073464;28;20572;-66
2022/04/12 01:40:34;;;;;;;11.13;2.63;;;25.00;99.90;;;;;;5059420;28;20184;-66
2022/04/12 01:43:02;;;;;;;7.73;2.23;;;25.50;99.90;;;;;;5068715;28;20192;-67
2022/04/12 01:45:30;;;;;;;12.27;2.13;;;24.90;99.90;;;;;;5053342;28;20248;-67
2022/04/12 01:47:57;;;;;;;12.93;2.47;;;25.80;99.90;;;;;;5053216;28;20184;-67
2022/04/12 01:50:25;;;;;;;11.20;1.97;;;25.10;99.90;;;;;;5053047;28;20311;-67
2022/04/12 01:52:53;;;;;;;11.07;1.63;;;24.20;99.90;;;;;;5053074;28;20176;-68
2022/04/12 01:55:21;;;;;;;8.03;1.70;;;23.90;99.90;;;;;;5052923;28;20184;-68
2022/04/12 01:57:51;;;;;;;8.20;2.07;;;23.60;99.90;;;;;;5053024;28;20630;-68
2022/04/12 02:00:20;;;;;;;11.30;2.20;;;23.40;99.90;;;;;;5069400;28;20195;-67
2022/04/12 02:02:47;;;;;;;7.13;1.93;;;23.30;99.90;;;;;;5071637;28;20694;-67
2022/04/12 02:05:15;;;;;;;11.53;2.27;;;23.00;99.90;;;;;;5058201;28;20173;-68
2022/04/12 02:07:43;;;;;;;10.93;2.50;;;23.00;99.90;;;;;;5054599;28;20242;-68
2022/04/12 02:10:11;;;;;;;11.23;2.37;;;23.10;99.90;;;;;;5051216;28;20204;-68
2022/04/12 02:12:39;;;;;;;8.07;2.00;;;22.90;99.90;;;;;;5052800;28;20187;-67
2022/04/12 02:15:07;;;;;;;8.23;1.90;;;22.80;99.90;;;;;;5052324;28;20236;-68
2022/04/12 02:17:35;;;;;;;12.87;2.10;;;22.80;99.90;;;;;;5052622;28;20180;-68
2022/04/12 02:20:03;;;;;;;12.13;2.20;;;22.80;99.90;;;;;;5053074;28;20180;-68
2022/04/12 02:22:31;;;;;;;15.40;2.50;;;22.90;99.90;;;;;;5051171;28;20216;-68
2022/04/12 02:24:59;;;;;;;8.03;2.23;;;23.30;99.90;;;;;;5052101;28;20688;-68
2022/04/12 02:27:26;;;;;;;7.57;1.80;;;24.50;99.90;;;;;;5053480;28;20181;-67
2022/04/12 02:29:54;;;;;;;8.57;1.97;;;25.30;99.90;;;;;;5057909;28;20668;-67
2022/04/12 02:32:22;;;;;;;8.17;2.03;;;25.10;99.90;;;;;;5065748;28;20188;-68
2022/04/12 02:34:50;;;;;;;8.93;1.93;;;24.90;99.90;;;;;;5059679;28;20180;-66
2022/04/12 02:37:18;;;;;;;12.60;1.67;;;24.80;99.90;;;;;;5060461;28;20184;-67
2022/04/12 02:39:45;;;;;;;7.73;2.30;;;26.10;99.90;;;;;;5052175;28;20195;-67
2022/04/12 02:42:13;;;;;;;8.70;1.70;;;26.30;99.90;;;;;;5052544;28;20177;-67
2022/04/12 02:44:41;;;;;;;11.80;1.90;;;25.90;99.90;;;;;;5072088;28;20224;-67
2022/04/12 02:47:08;;;;;;;11.57;2.70;;;24.30;99.90;;;;;;5065193;28;20195;-66
2022/04/12 02:49:36;;;;;;;7.37;1.60;;;24.00;99.90;;;;;;5050855;28;20225;-66
2022/04/12 02:52:08;;;;;;;7.53;1.93;;;23.60;99.90;;;;;;5052192;28;20273;-67
2022/04/12 02:54:36;;;;;;;9.90;2.00;;;23.50;99.90;;;;;;5059306;28;20184;-67
2022/04/12 02:57:04;;;;;;;10.80;1.70;;;23.40;99.90;;;;;;5068683;28;20556;-68
2022/04/12 02:59:32;;;;;;;5.33;2.23;;;23.60;99.90;;;;;;5062489;28;20216;-67
2022/04/12 03:02:00;;;;;;;7.97;1.90;;;23.30;99.90;;;;;;5063200;28;20609;-68
2022/04/12 03:04:28;;;;;;;9.33;1.67;;;23.20;99.90;;;;;;5050982;28;20183;-68
2022/04/12 03:06:55;;;;;;;11.17;2.00;;;23.20;99.90;;;;;;5051732;28;20203;-67
2022/04/12 03:09:24;;;;;;;9.00;2.10;;;23.50;99.90;;;;;;5066542;28;20180;-67
2022/04/12 03:11:52;;;;;;;14.83;2.23;;;23.80;99.90;;;;;;5063905;28;20600;-68
2022/04/12 03:14:19;;;;;;;10.63;1.87;;;25.30;99.90;;;;;;5051857;28;20188;-68
2022/04/12 03:16:47;;;;;;;8.10;1.77;;;26.50;99.90;;;;;;5060441;28;20311;-68
2022/04/12 03:19:15;;;;;;;5.37;1.60;;;26.90;99.90;;;;;;5070683;28;20578;-67
2022/04/12 03:21:42;;;;;;;14.00;1.70;;;26.90;99.90;;;;;;5071632;28;20614;-67
2022/04/12 03:24:10;;;;;;;8.47;1.73;;;27.60;99.90;;;;;;5069035;28;20183;-67
2022/04/12 03:26:38;;;;;;;9.73;1.60;;;27.40;99.90;;;;;;5062625;28;20191;-68
2022/04/12 03:29:07;;;;;;;7.73;2.13;;;26.90;99.90;;;;;;5066715;28;20284;-67
2022/04/12 03:31:35;;;;;;;8.10;1.67;;;27.00;99.90;;;;;;5076359;28;20228;-67
2022/04/12 03:34:02;;;;;;;10.17;1.83;;;27.00;99.90;;;;;;5068779;28;20285;-67
2022/04/12 03:36:30;;;;;;;8.80;1.97;;;26.40;99.90;;;;;;5056739;28;20653;-68
2022/04/12 03:38:58;;;;;;;7.67;2.17;;;25.40;99.90;;;;;;5055549;28;20249;-68
2022/04/12 03:41:25;;;;;;;11.67;2.07;;;24.80;99.90;;;;;;5055589;28;20191;-68
2022/04/12 03:43:53;;;;;;;8.07;1.87;;;25.70;99.90;;;;;;5056486;28;20183;-68
2022/04/12 03:46:21;;;;;;;5.30;1.50;;;26.30;99.90;;;;;;5057875;28;20184;-68
2022/04/12 03:48:49;;;;;;;7.83;1.93;;;26.20;99.90;;;;;;5073990;28;20187;-68
2022/04/12 03:51:17;;;;;;;9.00;1.77;;;25.00;99.90;;;;;;5055455;28;20212;-68
2022/04/12 03:53:44;;;;;;;9.40;1.87;;;24.50;99.90;;;;;;5071023;28;20232;-67
2022/04/12 03:56:12;;;;;;;8.50;2.23;;;23.80;99.90;;;;;;5070569;28;20726;-68
2022/04/12 03:58:40;;;;;;;11.50;2.33;;;23.30;99.90;;;;;;5061275;28;20262;-68
2022/04/12 04:01:08;;;;;;;12.70;2.70;;;23.20;99.90;;;;;;5058703;28;20292;-70
2022/04/12 04:03:37;;;;;;;11.30;2.30;;;23.00;99.90;;;;;;5055238;28;20184;-67
2022/04/12 04:06:05;;;;;;;11.57;2.13;;;22.90;99.90;;;;;;5056147;28;20700;-67
2022/04/12 04:08:33;;;;;;;14.10;2.23;;;22.70;99.90;;;;;;5055834;28;20200;-67
2022/04/12 04:11:01;;;;;;;11.17;1.67;;;22.70;99.90;;;;;;5054813;28;20242;-67
2022/04/12 04:13:35;;;;;;;5.60;2.20;;;22.90;99.90;;;;;;5062979;28;20187;-68
2022/04/12 04:16:05;;;;;;;8.60;2.27;;;22.80;99.90;;;;;;5074757;28;20227;-68
2022/04/12 04:18:34;;;;;;;11.33;2.13;;;22.80;99.90;;;;;;5073703;28;20186;-67
2022/04/12 04:21:02;;;;;;;8.77;1.73;;;23.30;99.90;;;;;;5074731;28;20184;-67
2022/04/12 04:23:30;;;;;;;7.37;2.00;;;23.70;99.90;;;;;;5074714;28;20175;-68
2022/04/12 04:25:57;;;;;;;9.80;2.23;;;23.90;99.90;;;;;;5074769;28;20251;-68
2022/04/12 04:28:29;;;;;;;9.97;2.10;;;24.00;99.90;;;;;;5074396;28;20180;-68
2022/04/12 04:31:00;;;;;;;8.87;2.13;;;23.90;99.90;;;;;;5085414;28;20215;-67
2022/04/12 04:33:27;;;;;;;9.57;2.10;;;23.70;99.90;;;;;;5054674;28;20611;-68
2022/04/12 04:35:55;;;;;;;9.17;2.17;;;23.70;99.90;;;;;;5053747;28;20177;-68
2022/04/12 04:38:23;;;;;;;5.20;2.13;;;23.80;99.90;;;;;;5054574;28;20181;-67
2022/04/12 04:40:51;;;;;;;8.50;1.97;;;23.90;99.90;;;;;;5054355;28;20652;-68
2022/04/12 04:43:18;;;;;;;9.87;2.30;;;23.90;99.90;;;;;;5054385;28;20184;-67
2022/04/12 04:45:46;;;;;;;12.13;2.87;;;23.90;99.90;;;;;;5054392;28;20260;-67
2022/04/12 04:48:14;;;;;;;9.23;2.53;;;23.70;99.90;;;;;;5086617;28;20181;-68
2022/04/12 04:50:48;;;;;;;12.33;2.50;;;23.40;99.90;;;;;;5054515;28;20220;-67
2022/04/12 04:53:16;;;;;;;7.87;2.10;;;23.20;99.90;;;;;;5054341;28;20607;-67
2022/04/12 04:55:44;;;;;;;9.07;2.37;;;23.30;99.90;;;;;;5054305;28;20172;-68
2022/04/12 04:58:12;;;;;;;9.07;2.17;;;23.50;99.90;;;;;;5054275;28;20546;-67
2022/04/12 05:00:43;;;;;;;12.83;2.43;;;23.60;99.90;;;;;;5054083;28;20666;-67
2022/04/12 05:03:11;;;;;;;6.83;2.37;;;23.80;99.90;;;;;;5054076;28;20224;-67
2022/04/12 05:05:38;;;;;;;7.80;2.57;;;23.80;99.90;;;;;;5086267;28;20180;-68
2022/04/12 05:08:06;;;;;;;7.87;2.23;;;23.70;99.90;;;;;;5059021;28;20180;-67
2022/04/12 05:10:34;;;;;;;6.53;1.87;;;23.40;99.90;;;;;;5073844;28;20216;-68
2022/04/12 05:13:02;;;;;;;6.77;2.10;;;23.30;99.90;;;;;;5074010;28;20179;-68
2022/04/12 05:15:31;;;;;;;9.17;2.40;;;22.80;99.90;;;;;;5073632;28;20257;-67
2022/04/12 05:17:59;;;;;;;9.83;2.60;;;22.60;99.90;;;;;;5073892;28;20183;-69
2022/04/12 05:20:27;;;;;;;8.33;2.43;;;22.40;99.90;;;;;;5072688;28;20182;-67
2022/04/12 05:22:55;;;;;;;10.33;2.87;;;22.40;99.90;;;;;;5073834;28;20214;-67
2022/04/12 05:25:23;;;;;;;10.13;2.13;;;22.20;99.90;;;;;;5119024;27;20185;-68
2022/04/12 05:27:51;;;;;;;8.23;2.57;;;22.10;99.90;;;;;;5054831;28;20183;-68
2022/04/12 05:30:19;;;;;;;9.33;2.60;;;22.10;99.90;;;;;;5064596;28;20228;-68
2022/04/12 05:32:50;;;;;;;8.27;2.40;;;22.10;99.90;;;;;;5053597;28;20613;-68
2022/04/12 05:35:18;;;;;;;14.20;3.20;;;22.10;99.90;;;;;;5069993;28;20252;-68
2022/04/12 05:37:48;;;;;;;8.20;2.40;;;22.00;99.90;;;;;;5072174;28;20190;-68
2022/04/12 05:40:19;;;;;;;14.57;3.13;;;22.00;99.90;;;;;;5073374;28;20184;-67
2022/04/12 05:42:47;;;;;;;10.00;3.20;;;21.90;99.90;;;;;;5073300;28;20179;-68
2022/04/12 05:45:16;;;;;;;5.53;2.40;;;21.70;99.90;;;;;;5073403;28;20207;-69
2022/04/12 05:47:46;;;;;;;10.37;2.00;;;21.70;99.90;;;;;;5071565;28;20188;-68
2022/04/12 05:50:16;;;;;;;10.77;3.13;;;21.60;99.90;;;;;;5071733;28;20219;-68
2022/04/12 05:52:44;;;;;;;10.00;2.73;;;21.60;99.90;;;;;;5073284;28;20244;-69
2022/04/12 05:55:15;;;;;;;7.77;3.10;;;21.60;99.90;;;;;;5061865;28;20541;-69
2022/04/12 05:57:53;;;;;;;11.07;3.17;;;21.60;99.90;;;;;;5053309;28;20179;-68
2022/04/12 06:00:25;;;;;;;12.37;2.87;;;21.70;99.90;;;;;;5052803;28;20196;-68
2022/04/12 06:02:55;;;;;;;10.03;2.53;;;21.70;99.90;;;;;;5053050;28;20676;-68
2022/04/12 06:05:26;;;;;;;13.70;3.30;;;21.40;99.90;;;;;;5054484;28;20184;-68
2022/04/12 06:07:54;;;;;;;11.03;3.17;;;21.40;99.90;;;;;;5071588;28;20187;-68
2022/04/12 06:10:22;;;;;;;13.23;2.83;;;21.40;99.90;;;;;;5060131;28;20227;-69
2022/04/12 06:12:54;;;;;;;10.67;3.47;;;21.30;99.90;;;;;;5052876;28;20172;-67
2022/04/12 06:15:21;;;;;;;11.63;3.20;;;21.30;99.90;;;;;;5056979;28;20717;-67
2022/04/12 06:17:49;;;;;;;7.83;2.70;;;21.20;99.90;;;;;;5071378;28;20647;-69
2022/04/12 06:20:19;;;;;;;6.40;2.60;;;21.40;99.90;;;;;;5072553;28;20206;-67
2022/04/12 06:22:47;;;;;;;8.10;2.80;;;21.50;99.90;;;;;;5072463;28;20185;-68
2022/04/12 06:25:16;;;;;;;9.27;2.60;;;21.40;99.90;;;;;;5072741;28;20173;-68
2022/04/12 06:27:50;;;;;;;13.27;3.37;;;21.30;99.90;;;;;;5072542;28;20180;-68
2022/04/12 06:30:20;;;;;;;7.77;3.00;;;21.10;99.90;;;;;;5070907;28;20220;-67
2022/04/12 06:32:49;;;;;;;8.43;3.20;;;21.00;99.90;;;;;;5072362;28;20200;-68
2022/04/12 06:35:17;;;;;;;8.07;3.03;;;21.00;99.90;;;;;;5072607;28;20179;-68
2022/04/12 06:37:46;;;;;;;9.17;3.00;;;20.90;99.90;;;;;;5072546;28;20182;-68
2022/04/12 06:40:16;;;;;;;8.97;3.27;;;20.80;99.90;;;;;;5071910;28;20656;-67
2022/04/12 06:42:44;;;;;;;9.73;2.80;;;20.70;99.90;;;;;;5070998;28;20589;-69
2022/04/12 06:45:12;;;;;;;13.27;3.17;;;20.60;99.90;;;;;;5072230;28;20170;-68
2022/04/12 06:47:41;;;;;;;10.63;3.67;;;20.70;99.90;;;;;;5075911;28;20192;-68
2022/04/12 06:50:10;;;;;;;10.17;3.07;;;20.70;99.90;;;;;;5092437;28;20203;-69
2022/04/12 06:52:40;;;;;;;14.17;3.30;;;20.60;99.90;;;;;;5092350;28;20670;-66
2022/04/12 06:55:09;;;;;;;15.40;3.70;;;20.60;99.90;;;;;;5071541;28;20184;-66
2022/04/12 06:57:37;;;;;;;11.60;3.40;;;20.40;99.90;;;;;;5059329;28;20195;-67
2022/04/12 07:00:11;;;;;;;10.07;3.67;;;20.40;99.90;;;;;;5060751;28;20523;-67
2022/04/12 07:02:39;;;;;;;19.00;3.27;;;20.30;99.90;;;;;;5066811;28;20263;-67
2022/04/12 07:05:08;;;;;;;8.53;3.23;;;20.40;99.90;;;;;;5066066;28;20191;-67
2022/04/12 07:07:40;;;;;;;8.10;3.07;;;20.20;99.90;;;;;;5065057;28;20184;-67
2022/04/12 07:10:10;;;;;;;16.77;3.80;;;20.20;99.90;;;;;;5064819;28;20235;-67
2022/04/12 07:12:39;;;;;;;15.57;3.50;;;20.20;99.90;;;;;;5071975;28;20185;-67
2022/04/12 07:15:09;;;;;;;10.03;2.97;;;20.20;99.90;;;;;;5059344;28;20224;-67
2022/04/12 07:17:37;;;;;;;10.87;3.30;;;20.20;99.90;;;;;;5051849;28;20213;-67
2022/04/12 07:20:05;;;;;;;16.47;3.60;;;20.10;99.90;;;;;;5051948;28;20230;-67
2022/04/12 07:22:33;;;;;;;8.87;3.70;;;20.10;99.90;;;;;;5060143;28;20266;-67
2022/04/12 07:25:01;;;;;;;10.80;3.70;;;20.10;99.90;;;;;;5054530;28;20215;-66
2022/04/12 07:27:36;;;;;;;16.23;4.37;;;20.00;99.90;;;;;;5052768;28;20191;-67
2022/04/12 07:30:06;;;;;;;12.03;3.30;;;20.00;99.90;;;;;;5050272;28;20771;-68
2022/04/12 07:32:34;;;;;;;9.93;3.33;;;20.00;99.90;;;;;;5051635;28;20186;-68
2022/04/12 07:35:01;;;;;;;8.97;3.20;;;19.90;99.90;;;;;;5051661;28;20198;-67
2022/04/12 07:37:29;;;;;;;10.70;3.13;;;19.80;99.90;;;;;;5051682;28;20188;-67
2022/04/12 07:39:56;;;;;;;10.63;2.93;;;19.80;99.90;;;;;;5051480;28;20269;-67
2022/04/12 07:42:24;;;;;;;13.27;3.67;;;19.80;99.90;;;;;;5051627;28;20610;-67
2022/04/12 07:44:54;;;;;;;9.37;3.10;;;19.70;99.90;;;;;;5051467;28;20257;-66
2022/04/12 07:47:22;;;;;;;12.23;3.03;;;19.70;99.90;;;;;;5052920;28;20373;-67
2022/04/12 07:49:49;;;;;;;15.43;4.00;;;19.70;99.90;;;;;;5071840;28;20212;-68
2022/04/12 07:52:17;;;;;;;15.50;3.83;;;19.60;99.90;;;;;;5071939;28;20169;-68
2022/04/12 07:54:44;;;;;;;12.20;3.30;;;19.60;99.90;;;;;;5050572;28;20227;-68
2022/04/12 07:57:11;;;;;;;9.83;3.40;;;19.50;99.90;;;;;;5067671;28;20181;-68
2022/04/12 07:59:39;;;;;;;11.37;3.73;;;19.40;99.90;;;;;;5058341;28;20200;-67
2022/04/12 08:02:06;;;;;;;11.13;4.40;;;19.40;99.90;;;;;;5071088;28;20187;-67
2022/04/12 08:04:34;;;;;;;16.77;3.73;;;19.40;99.90;;;;;;5070032;28;20179;-67
2022/04/12 08:07:03;;;;;;;17.93;3.13;;;19.40;99.90;;;;;;5060194;28;20196;-68
2022/04/12 08:09:30;;;;;;;14.10;3.57;;;19.30;99.90;;;;;;5071216;28;20189;-66
2022/04/12 08:12:00;;;;;;;7.20;3.50;;;19.30;99.90;;;;;;5065603;28;20180;-68
2022/04/12 08:14:28;;;;;;;9.73;3.87;;;19.30;99.90;;;;;;5074153;28;20240;-67
2022/04/12 08:16:55;;;;;;;10.23;3.57;;;19.30;99.90;;;;;;5065478;28;20276;-67
2022/04/12 08:19:22;;;;;;;14.57;3.80;;;19.30;99.90;;;;;;5053893;28;20198;-68
2022/04/12 08:21:50;;;;;;;9.73;3.93;;;19.30;99.90;;;;;;5053471;28;20189;-68
2022/04/12 08:24:17;;;;;;;8.77;3.87;;;19.30;99.90;;;;;;5063155;28;20244;-67
2022/04/12 08:26:44;;;;;;;11.47;3.53;;;19.40;99.90;;;;;;5074794;28;20270;-68
2022/04/12 08:29:13;;;;;;;12.20;3.60;;;19.40;99.90;;;;;;5074478;28;20185;-68
2022/04/12 08:31:41;;;;;;;12.50;4.37;;;19.40;99.90;;;;;;5074701;28;20216;-67
2022/04/12 08:34:08;;;;;;;15.27;3.73;;;19.30;99.90;;;;;;5066623;28;20193;-66
2022/04/12 08:36:37;;;;;;;10.90;3.37;;;19.40;99.90;;;;;;5054762;28;20570;-67
2022/04/12 08:39:04;;;;;;;7.43;3.13;;;19.30;99.90;;;;;;5054177;28;20178;-67
2022/04/12 08:41:35;;;;;;;11.50;3.43;;;19.40;99.90;;;;;;5053347;28;20627;-70
2022/04/12 08:44:02;;;;;;;10.90;3.30;;;19.40;99.90;;;;;;5060177;28;20193;-68
2022/04/12 08:46:29;;;;;;;9.10;3.47;;;19.40;99.90;;;;;;5074743;28;20640;-68
2022/04/12 08:48:59;;;;;;;11.63;3.47;;;19.30;99.90;;;;;;5073134;28;20184;-69
2022/04/12 08:51:30;;;;;;;13.03;3.80;;;19.30;99.90;;;;;;5073149;28;20698;-70
2022/04/12 08:53:59;;;;;;;14.33;3.00;;;19.30;99.90;;;;;;5059613;28;20189;-68
2022/04/12 08:56:29;;;;;;;10.90;3.20;;;19.30;99.90;;;;;;5073186;28;20280;-67
2022/04/12 08:58:57;;;;;;;10.50;3.60;;;19.30;99.90;;;;;;5073910;28;20241;-68
2022/04/12 09:01:24;;;;;;;14.43;4.10;;;19.30;99.90;;;;;;5072107;28;20233;-66
2022/04/12 09:03:52;;;;;;;9.47;3.23;;;19.40;99.90;;;;;;5072881;28;20178;-66
2022/04/12 09:06:20;;;;;;;14.00;3.60;;;19.40;99.90;;;;;;5073304;28;20195;-67
2022/04/12 09:08:47;;;;;;;11.60;3.13;;;19.30;99.90;;;;;;5074008;28;20411;-67
2022/04/12 09:11:17;;;;;;;10.63;3.33;;;19.30;99.90;;;;;;5069508;28;20213;-68
2022/04/12 09:14:00;;;;;;;8.70;3.20;;;19.30;99.90;;;;;;5072670;28;20177;-67
2022/04/12 09:16:30;;;;;;;11.73;3.23;;;19.30;99.90;;;;;;5072711;28;20231;-67
2022/04/12 09:18:58;;;;;;;10.60;3.57;;;19.30;99.90;;;;;;5073922;28;20187;-68
2022/04/12 09:21:27;;;;;;;6.57;3.37;;;19.20;99.90;;;;;;5073315;28;20180;-67
2022/04/12 09:23:58;;;;;;;9.10;2.63;;;19.20;99.90;;;;;;5072436;28;20177;-69
2022/04/12 09:26:27;;;;;;;11.77;3.67;;;19.10;99.90;;;;;;5073870;28;20508;-67
2022/04/12 09:29:02;;;;;;;6.77;2.90;;;19.10;99.90;;;;;;5061167;28;20200;-68
2022/04/12 09:31:32;;;;;;;9.20;3.13;;;19.10;99.90;;;;;;5067025;28;20233;-69
2022/04/12 09:34:00;;;;;;;12.67;3.50;;;19.10;99.90;;;;;;5073367;28;20187;-68
2022/04/12 09:36:34;;;;;;;11.07;3.90;;;19.10;99.90;;;;;;5073242;28;20194;-67
2022/04/12 09:39:04;;;;;;;15.47;3.77;;;19.10;99.90;;;;;;5073140;28;20283;-68
2022/04/12 09:41:31;;;;;;;9.17;3.00;;;19.10;99.90;;;;;;5072760;28;20229;-69
2022/04/12 09:44:10;;;;;;;9.80;3.20;;;19.10;99.90;;;;;;5073481;28;20209;-68
2022/04/12 09:46:38;;;;;;;9.00;3.07;;;19.10;99.90;;;;;;5073683;28;20237;-68
2022/04/12 09:49:07;;;;;;;10.47;3.43;;;19.10;99.90;;;;;;5073116;28;20172;-67
2022/04/12 09:51:38;;;;;;;9.77;3.47;;;19.10;99.90;;;;;;5059221;28;20705;-68
2022/04/12 09:54:07;;;;;;;19.90;3.60;;;19.10;99.90;;;;;;5054072;28;20239;-68
2022/04/12 09:56:39;;;;;;;16.07;3.33;;;19.10;99.90;;;;;;5061382;28;20520;-69
2022/04/12 09:59:07;;;;;;;11.80;4.07;;;19.10;99.90;;;;;;5073266;28;20183;-67
2022/04/12 10:01:41;;;;;;;14.27;3.53;;;19.10;99.90;;;;;;5068768;28;20180;-69
2022/04/12 10:04:11;;;;;;;10.50;3.67;;;19.10;99.90;;;;;;5057037;28;20553;-68
2022/04/12 10:06:43;;;;;;;10.57;3.53;;;19.00;99.90;;;;;;5053704;28;20665;-69
2022/04/12 10:09:17;;;;;;;14.13;3.20;;;19.00;99.90;;;;;;5073790;28;20188;-68
2022/04/12 10:11:44;;;;;;;15.30;3.83;;;19.00;99.90;;;;;;5074159;28;20228;-69
2022/04/12 10:14:12;;;;;;;11.90;3.23;;;19.00;99.90;;;;;;5074145;28;20168;-69
2022/04/12 10:16:43;;;;;;;5.77;3.10;;;19.00;99.90;;;;;;5057303;28;20315;-68
2022/04/12 10:19:11;;;;;;;13.37;3.30;;;19.10;99.90;;;;;;5073913;28;20213;-69
2022/04/12 10:21:39;;;;;;;7.07;2.90;;;19.00;99.90;;;;;;5074656;28;20249;-67
2022/04/12 10:24:10;;;;;;;9.40;2.83;;;19.10;99.90;;;;;;5072216;28;20184;-68
2022/04/12 10:26:38;;;;;;;9.70;3.50;;;19.00;99.90;;;;;;5072959;28;20187;-69
2022/04/12 10:29:07;;;;;;;8.40;4.07;;;19.00;99.90;;;;;;5053784;28;20192;-68
2022/04/12 10:31:34;;;;;;;5.57;2.70;;;19.00;99.90;;;;;;5068047;28;20243;-68
2022/04/12 10:34:14;;;;;;;17.63;3.67;;;19.00;99.90;;;;;;5073168;28;20214;-69
2022/04/12 10:37:06;;;;;;;11.23;3.50;;;19.00;99.90;;;;;;5073083;28;20634;-68
2022/04/12 10:39:46;;;;;;;17.27;3.60;;;19.00;99.90;;;;;;5072893;28;20188;-68
2022/04/12 10:42:24;;;;;;;11.00;3.83;;;19.00;99.90;;;;;;5073316;28;20605;-68
2022/04/12 10:44:56;;;;;;;13.20;3.13;;;19.00;99.90;;;;;;5072972;28;20198;-69
2022/04/12 10:47:38;;;;;;;10.23;3.10;;;18.90;99.90;;;;;;5072898;28;20176;-68
2022/04/12 10:50:10;;;;;;;13.17;3.50;;;18.90;99.90;;;;;;5073359;28;20195;-68
2022/04/12 10:52:50;;;;;;;16.70;3.97;;;18.90;99.90;;;;;;5066276;28;20178;-68
2022/04/12 10:55:23;;;;;;;12.30;4.60;;;18.90;99.90;;;;;;5053633;28;20194;-69
2022/04/12 10:57:52;;;;;;;9.77;3.30;;;18.80;99.90;;;;;;5060706;28;20245;-68
2022/04/12 11:00:21;;;;;;;13.07;4.30;;;18.80;99.90;;;;;;5073277;28;20234;-67
2022/04/12 11:02:59;;;;;;;13.03;3.27;;;18.70;99.90;;;;;;5073667;28;20214;-69
2022/04/12 11:05:45;;;;;;;10.90;3.60;;;18.60;99.90;;;;;;5073258;28;20167;-68
2022/04/12 11:08:15;;;;;;;9.50;3.33;;;18.60;99.90;;;;;;5062543;28;20268;-68
2022/04/12 11:11:03;;;;;;;9.23;3.40;;;18.60;99.90;;;;;;5053198;28;20222;-68
2022/04/12 11:13:33;;;;;;;16.20;3.80;;;18.50;99.90;;;;;;5051935;28;20548;-68
2022/04/12 11:16:09;;;;;;;11.73;4.00;;;18.50;99.90;;;;;;5051774;28;20239;-67
2022/04/12 11:18:58;;;;;;;11.90;3.90;;;18.50;99.90;;;;;;5061929;28;20258;-68
2022/04/12 11:21:55;;;;;;;11.33;3.50;;;18.50;99.90;;;;;;5072595;28;20183;-68
2022/04/12 11:24:26;;;;;;;14.43;3.87;;;18.50;99.90;;;;;;5073585;28;20175;-68
2022/04/12 11:27:03;;;;;;;13.37;4.30;;;18.50;99.90;;;;;;5073461;28;20183;-68
2022/04/12 11:29:31;;;;;;;13.57;4.17;;;18.50;99.90;;;;;;5053050;28;20638;-67
2022/04/12 11:31:59;;;;;;;11.83;3.70;;;18.40;99.90;;;;;;5051869;28;20188;-67
2022/04/12 11:34:29;;;;;;;12.53;4.00;;;18.40;99.90;;;;;;5053262;28;20226;-68
2022/04/12 11:37:03;;;;;;;6.33;3.67;;;18.40;99.90;;;;;;5070903;28;20229;-68
2022/04/12 11:39:33;;;;;;;9.87;3.00;;;18.40;99.90;;;;;;5061477;28;20175;-69
2022/04/12 11:42:09;;;;;;;23.10;4.73;;;18.30;99.90;;;;;;5072400;28;20176;-67
2022/04/12 11:44:37;;;;;;;14.83;4.27;;;18.30;99.90;;;;;;5071112;28;20237;-68
2022/04/12 11:47:09;;;;;;;14.60;3.60;;;18.30;99.90;;;;;;5075726;28;20190;-68
2022/04/12 11:49:40;;;;;;;9.73;3.47;;;18.30;99.90;;;;;;5056117;28;20575;-68
2022/04/12 11:52:12;;;;;;;12.13;3.50;;;18.20;99.90;;;;;;5057522;28;20185;-67
2022/04/12 11:54:42;;;;;;;11.13;3.90;;;18.20;99.90;;;;;;5057448;28;20169;-68
2022/04/12 11:57:13;;;;;;;9.83;3.80;;;18.20;99.90;;;;;;5057341;28;20184;-68
2022/04/12 11:59:49;;;;;;;12.90;3.83;;;18.10;99.90;;;;;;5077024;28;20525;-68
2022/04/12 12:02:19;;;;;;;16.00;4.33;;;18.10;99.90;;;;;;5076561;28;20199;-68
2022/04/12 12:04:52;;;;;;;8.57;3.30;;;18.00;99.90;;;;;;5076465;28;20176;-67
2022/04/12 12:07:20;;;;;;;10.20;3.73;;;17.90;99.90;;;;;;5074378;28;20710;-69
2022/04/12 12:09:57;;;;;;;13.43;3.97;;;17.90;99.90;;;;;;5056127;28;20300;-69
2022/04/12 12:12:49;;;;;;;10.10;3.53;;;17.80;99.90;;;;;;5056383;28;20538;-68
2022/04/12 12:15:24;;;;;;;14.13;3.93;;;17.70;99.90;;;;;;5056556;28;20231;-69
2022/04/12 12:17:55;;;;;;;11.33;4.00;;;17.60;99.90;;;;;;5056253;28;20271;-69
2022/04/12 12:20:31;;;;;;;11.23;3.87;;;17.60;99.90;;;;;;5056201;28;20553;-68
2022/04/12 12:23:10;;;;;;;10.40;4.03;;;17.50;99.90;;;;;;5056254;28;20208;-68
2022/04/12 12:25:51;;;;;;;17.20;3.50;;;17.40;99.90;;;;;;5056383;28;20184;-68
2022/04/12 12:28:20;;;;;;;12.80;3.80;;;17.40;99.90;;;;;;5063575;28;20623;-68
2022/04/12 12:30:58;;;;;;;9.53;3.73;;;17.30;99.90;;;;;;5075837;28;20218;-68
2022/04/12 12:33:36;;;;;;;14.70;4.23;;;17.30;99.90;;;;;;5074827;28;20186;-69
2022/04/12 12:36:04;;;;;;;9.27;3.10;;;17.30;99.90;;;;;;5076067;28;20185;-68
2022/04/12 12:38:32;;;;;;;8.30;4.17;;;17.20;99.90;;;;;;5074665;28;20637;-68
2022/04/12 12:40:59;;;;;;;7.17;3.87;;;17.20;99.90;;;;;;5075905;28;20682;-67
2022/04/12 12:43:28;;;;;;;14.23;5.50;;;17.20;99.90;;;;;;5073303;28;20720;-68
2022/04/12 12:45:55;;;;;;;14.07;4.80;;;17.20;99.90;;;;;;5065343;28;20238;-68
2022/04/12 12:48:23;;;;;;;9.97;4.20;;;17.20;99.90;;;;;;5065229;28;20212;-69
2022/04/12 12:50:50;;;;;;;8.83;3.70;;;17.20;99.90;;;;;;5068361;28;20219;-68
2022/04/12 12:53:24;;;;;;;11.20;4.10;;;17.20;99.90;;;;;;5055843;28;20539;-68
2022/04/12 12:55:51;;;;;;;12.83;3.87;;;17.20;99.90;;;;;;5072687;28;20187;-67